Česky Dansk Deutsch English Español Suomi Français Magyar Italiano Nederlands norsk Polski Português svenska Türkçe

 

Het Weer

Les Eplatures (Zwitzerland)

06:20, 22 augustus 2016 (GMT)

NWNNE
WE
SWSSE
Home            
Les Eplatures Neuchatel Payerne Grenchen Bern / Belp Lausanne Belfort Besancon Bale-Mulhouse Luxeuil Dole Tavaux Colmar Sion Geneve-Cointrin Dijon Zurich-Kloten Pian Rosa Donaueschingen / Villingen Lahr, CAN-AFB Amberieu Chambery / Aix-Les-Bains Strasbourg Macon

Om een weerknop op uw website of weblog te plaatsen, copieer onderstaande code en plak die in uw pagina. In het eerste vakje staat HTML-code, in het tweede vakje UBB-code.


Add to Google

Details

Wind speed:1 bf, 1 kn, 0.5 m/s, 1.2 miles/h, 1.9 km/h
Wind direction:Variable
Visibility:Greater than 10000 m, 10 km, 32800 ft, 6.2 miles
Clouds:CAVOC
Temperature:8°C, 46°F
Dew-point:7°C, 45°F
Atmospheric pressure:1030 hPa, 772.6 mmHg, 30.42 inHg, 1.017 atm
Relative humidity:93.4 %
METAR:LSGC 220620Z VRB01KT CAVOK 08/07 Q1030

Snelkoppelingen

Actuele weersinformatie van de hele wereld. Voeg locaties toe met het plus (+) symbool. Deze snelkoppelingen kunnen worden toegevoegd aan Google.

Lid van de Technetium groep

website free tracking
StatCounter NetStat W3C Validator

25-11-2020 08:18:58
astro.technetium.be money.technetium.be phote.technetium.be tafeltennistafel.technetium.be www.ligfiets.net